createdAt,value
2022-10-30T00:01:04.892Z,13.90
2022-10-30T00:03:31.613Z,13.97
2022-10-30T00:05:58.012Z,14.01
2022-10-30T00:08:27.801Z,14.19
2022-10-30T00:10:54.281Z,14.10
2022-10-30T00:13:21.758Z,14.13
2022-10-30T00:15:50.520Z,14.19
2022-10-30T00:18:17.443Z,14.27
2022-10-30T00:20:44.040Z,14.15
2022-10-30T00:23:10.579Z,14.11
2022-10-30T00:25:37.070Z,14.04
2022-10-30T00:28:05.424Z,14.06
2022-10-30T00:30:34.615Z,13.98
2022-10-30T00:33:01.569Z,14.02
2022-10-30T00:35:28.118Z,14.10
2022-10-30T00:37:54.802Z,14.17
2022-10-30T00:40:21.743Z,14.18
2022-10-30T00:42:48.210Z,14.17
2022-10-30T00:45:17.003Z,14.13
2022-10-30T00:47:46.847Z,13.95
2022-10-30T00:50:22.329Z,14.00
2022-10-30T00:52:52.420Z,13.93
2022-10-30T00:55:37.429Z,13.89
2022-10-30T00:58:07.772Z,13.99
2022-10-30T01:00:36.628Z,13.83
2022-10-30T01:03:03.940Z,13.68
2022-10-30T01:09:11.147Z,13.51
2022-10-30T01:11:37.620Z,13.56
2022-10-30T01:14:08.450Z,13.55
2022-10-30T01:17:08.566Z,13.53
2022-10-30T01:19:43.834Z,13.68
2022-10-30T01:22:37.617Z,13.75
2022-10-30T01:25:36.546Z,13.73
2022-10-30T01:28:32.837Z,13.65
2022-10-30T01:31:21.133Z,13.60
2022-10-30T01:34:22.931Z,13.67
2022-10-30T01:37:01.139Z,13.69
2022-10-30T01:39:33.077Z,13.59
2022-10-30T01:41:59.621Z,13.50
2022-10-30T01:44:31.859Z,13.51
2022-10-30T01:47:28.812Z,13.59
2022-10-30T01:50:01.227Z,13.58
2022-10-30T01:52:41.446Z,13.16
2022-10-30T01:55:31.032Z,13.35
2022-10-30T01:58:20.032Z,13.28
2022-10-30T02:00:52.738Z,13.25
2022-10-30T02:03:19.662Z,13.23
2022-10-30T02:05:50.088Z,12.86
2022-10-30T02:08:17.209Z,12.74
2022-10-30T02:10:46.423Z,12.68
2022-10-30T02:13:12.987Z,13.01
2022-10-30T02:15:40.847Z,12.98
2022-10-30T02:18:07.482Z,12.77
2022-10-30T02:20:34.251Z,12.42
2022-10-30T02:23:01.568Z,12.48
2022-10-30T02:25:28.360Z,12.55
2022-10-30T02:27:54.865Z,12.58
2022-10-30T02:30:21.439Z,12.49
2022-10-30T02:32:47.920Z,12.59
2022-10-30T02:35:14.380Z,12.73
2022-10-30T02:37:40.821Z,12.50
2022-10-30T02:40:10.567Z,12.69
2022-10-30T02:42:37.088Z,12.86
2022-10-30T02:45:03.848Z,12.82
2022-10-30T02:47:30.460Z,12.89
2022-10-30T02:49:56.976Z,12.92
2022-10-30T02:52:23.398Z,12.92
2022-10-30T02:54:49.846Z,12.81
2022-10-30T02:57:16.449Z,12.76
2022-10-30T02:59:42.996Z,12.72
2022-10-30T03:02:09.515Z,12.79
2022-10-30T03:04:36.053Z,12.53
2022-10-30T03:07:02.492Z,12.83
2022-10-30T03:09:29.027Z,12.77
2022-10-30T03:11:55.497Z,12.70
2022-10-30T03:14:22.073Z,12.85
2022-10-30T03:16:48.589Z,12.85
2022-10-30T03:19:15.020Z,12.71
2022-10-30T03:21:41.537Z,12.88
2022-10-30T03:24:08.157Z,12.61
2022-10-30T03:26:34.696Z,12.65
2022-10-30T03:29:01.087Z,12.58
2022-10-30T03:31:27.751Z,12.45
2022-10-30T03:33:54.214Z,12.62
2022-10-30T03:36:20.692Z,12.62
2022-10-30T03:38:47.404Z,12.40
2022-10-30T03:41:20.659Z,12.39
2022-10-30T03:43:47.200Z,12.46
2022-10-30T03:46:13.712Z,12.11
2022-10-30T03:48:40.196Z,12.38
2022-10-30T03:51:06.768Z,12.28
2022-10-30T03:53:33.337Z,12.10
2022-10-30T03:56:02.796Z,12.32
2022-10-30T03:58:29.975Z,12.30
2022-10-30T04:01:04.788Z,12.19
2022-10-30T04:03:31.782Z,11.86
2022-10-30T04:05:58.514Z,12.34
2022-10-30T04:08:25.089Z,12.72
2022-10-30T04:10:51.717Z,12.79
2022-10-30T04:13:20.432Z,12.76
2022-10-30T04:15:56.039Z,12.85
2022-10-30T04:18:24.190Z,12.77
2022-10-30T04:20:50.639Z,12.80
2022-10-30T04:23:20.092Z,12.97
2022-10-30T04:25:46.802Z,12.96
2022-10-30T04:28:13.243Z,13.01
2022-10-30T04:30:40.588Z,13.05
2022-10-30T04:33:11.205Z,13.09
2022-10-30T04:35:38.411Z,13.14
2022-10-30T04:38:10.661Z,13.18
2022-10-30T04:40:39.966Z,13.23
2022-10-30T04:43:07.613Z,13.23
2022-10-30T04:45:34.523Z,13.23
2022-10-30T04:48:08.920Z,13.14
2022-10-30T04:50:35.673Z,13.10
2022-10-30T04:53:04.471Z,13.13
2022-10-30T04:55:31.762Z,13.01
2022-10-30T04:57:59.517Z,12.96
2022-10-30T05:00:27.259Z,12.97
2022-10-30T05:02:53.735Z,13.04
2022-10-30T05:05:20.790Z,13.12
2022-10-30T05:07:47.262Z,12.91
2022-10-30T05:10:14.719Z,13.09
2022-10-30T05:12:45.367Z,13.11
2022-10-30T05:15:13.349Z,13.09
2022-10-30T05:17:40.382Z,12.98
2022-10-30T05:20:07.959Z,13.01
2022-10-30T05:22:34.357Z,13.02
2022-10-30T05:25:00.817Z,12.83
2022-10-30T05:27:27.296Z,12.52
2022-10-30T05:29:53.675Z,12.52
2022-10-30T05:32:20.148Z,12.42
2022-10-30T05:34:46.567Z,12.40
2022-10-30T05:37:13.021Z,12.66
2022-10-30T05:39:39.481Z,12.68
2022-10-30T05:42:08.539Z,12.64
2022-10-30T05:44:59.350Z,12.76
2022-10-30T05:47:24.195Z,12.96
2022-10-30T05:49:50.589Z,12.90
2022-10-30T05:52:16.983Z,13.05
2022-10-30T05:54:43.416Z,12.71
2022-10-30T05:57:09.899Z,12.54
2022-10-30T05:59:36.340Z,12.68
2022-10-30T06:02:02.808Z,12.88
2022-10-30T06:04:29.349Z,12.62
2022-10-30T06:06:55.820Z,12.46
2022-10-30T06:09:22.319Z,12.29
2022-10-30T06:11:48.812Z,12.27
2022-10-30T06:14:15.308Z,12.50
2022-10-30T06:16:41.849Z,12.60
2022-10-30T06:19:09.371Z,12.82
2022-10-30T06:21:37.231Z,12.74
2022-10-30T06:24:03.930Z,12.76
2022-10-30T06:26:30.405Z,12.85
2022-10-30T06:28:56.855Z,12.82
2022-10-30T06:31:23.362Z,12.72
2022-10-30T06:33:49.833Z,12.56
2022-10-30T06:36:17.526Z,12.45
2022-10-30T06:38:44.479Z,12.36
2022-10-30T06:41:11.039Z,12.37
2022-10-30T06:43:37.497Z,12.45
2022-10-30T06:46:04.160Z,12.38
2022-10-30T06:48:30.737Z,12.45
2022-10-30T06:50:58.979Z,12.49
2022-10-30T06:53:26.345Z,12.61
2022-10-30T06:55:58.942Z,12.75
2022-10-30T06:58:26.800Z,12.81
2022-10-30T07:00:56.841Z,12.93
2022-10-30T07:03:23.302Z,12.82
2022-10-30T07:05:49.902Z,12.60
2022-10-30T07:08:16.380Z,12.67
2022-10-30T07:10:42.858Z,12.78
2022-10-30T07:13:09.582Z,12.59
2022-10-30T07:15:36.189Z,12.79
2022-10-30T07:18:03.914Z,12.92
2022-10-30T07:20:33.011Z,13.32
2022-10-30T07:23:00.267Z,13.47
2022-10-30T07:25:27.032Z,13.45
2022-10-30T07:27:55.314Z,13.69
2022-10-30T07:33:01.325Z,13.68
2022-10-30T07:35:28.438Z,13.79
2022-10-30T07:37:55.469Z,13.78
2022-10-30T07:40:22.894Z,13.70
2022-10-30T07:42:49.519Z,13.89
2022-10-30T07:45:15.973Z,13.82
2022-10-30T07:47:43.264Z,13.77
2022-10-30T07:50:10.639Z,13.99
2022-10-30T07:52:37.110Z,13.84
2022-10-30T07:55:04.361Z,14.11
2022-10-30T07:57:35.025Z,14.35
2022-10-30T08:00:04.248Z,14.21
2022-10-30T08:02:31.693Z,14.13
2022-10-30T08:04:58.250Z,14.02
2022-10-30T08:07:24.818Z,14.37
2022-10-30T08:09:51.346Z,14.21
2022-10-30T08:12:17.881Z,14.53
2022-10-30T08:14:44.305Z,14.79
2022-10-30T08:17:10.904Z,14.63
2022-10-30T08:19:37.337Z,15.21
2022-10-30T08:22:03.964Z,15.50
2022-10-30T08:24:30.392Z,15.80
2022-10-30T08:26:56.821Z,15.73
2022-10-30T08:29:23.266Z,16.02
2022-10-30T08:31:50.831Z,15.70
2022-10-30T08:34:17.375Z,16.00
2022-10-30T08:36:46.768Z,16.63
2022-10-30T08:39:16.693Z,16.88
2022-10-30T08:41:43.134Z,16.95
2022-10-30T08:44:09.637Z,17.40
2022-10-30T08:46:36.149Z,17.69
2022-10-30T08:49:02.591Z,17.70
2022-10-30T08:51:32.711Z,17.74
2022-10-30T08:53:59.817Z,17.76
2022-10-30T08:56:26.715Z,17.79
2022-10-30T08:58:53.484Z,17.71
2022-10-30T09:01:20.284Z,18.00
2022-10-30T09:03:47.814Z,18.20
2022-10-30T09:06:14.234Z,18.29
2022-10-30T09:08:40.686Z,18.22
2022-10-30T09:11:07.329Z,18.16
2022-10-30T09:13:33.806Z,18.37
2022-10-30T09:16:01.745Z,18.61
2022-10-30T09:18:28.500Z,18.79
2022-10-30T09:20:55.072Z,19.11
2022-10-30T09:23:21.902Z,19.30
2022-10-30T09:25:48.330Z,19.56
2022-10-30T09:28:14.733Z,19.71
2022-10-30T09:30:41.127Z,20.17
2022-10-30T09:33:08.823Z,20.30
2022-10-30T09:35:36.943Z,20.95
2022-10-30T09:38:03.484Z,21.21
2022-10-30T09:41:03.452Z,21.28
2022-10-30T09:43:49.076Z,21.62
2022-10-30T09:46:15.499Z,21.89
2022-10-30T09:48:55.043Z,22.16
2022-10-30T09:51:31.413Z,22.29
2022-10-30T09:54:12.859Z,21.34
2022-10-30T09:56:45.287Z,21.72
2022-10-30T09:59:26.660Z,20.84
2022-10-30T10:01:56.038Z,20.75
2022-10-30T10:04:44.530Z,20.59
2022-10-30T10:07:21.011Z,21.23
2022-10-30T10:09:51.370Z,20.96
2022-10-30T10:12:31.956Z,21.64
2022-10-30T10:15:04.658Z,22.07
2022-10-30T10:17:38.494Z,22.55
2022-10-30T10:20:11.711Z,22.04
2022-10-30T10:22:49.614Z,21.62
2022-10-30T10:25:19.116Z,21.80
2022-10-30T10:28:36.691Z,22.11
2022-10-30T10:31:13.007Z,21.94
2022-10-30T10:34:30.401Z,21.69
2022-10-30T10:37:02.254Z,21.67
2022-10-30T10:40:03.259Z,21.91
2022-10-30T10:42:47.515Z,21.29
2022-10-30T10:45:22.494Z,21.30
2022-10-30T10:48:19.267Z,21.48
2022-10-30T10:50:58.625Z,21.60
2022-10-30T10:53:30.700Z,21.47
2022-10-30T10:55:59.997Z,21.51
2022-10-30T10:58:56.662Z,22.10
2022-10-30T11:01:49.026Z,21.80
2022-10-30T11:04:36.238Z,21.64
2022-10-30T11:07:19.319Z,21.70
2022-10-30T11:09:51.123Z,22.04
2022-10-30T11:12:22.104Z,21.99
2022-10-30T11:14:48.671Z,22.43
2022-10-30T11:17:42.487Z,21.80
2022-10-30T11:20:20.869Z,21.60
2022-10-30T11:22:51.149Z,21.36
2022-10-30T11:25:26.865Z,21.28
2022-10-30T11:27:59.541Z,21.19
2022-10-30T11:30:28.681Z,21.80
2022-10-30T11:32:57.215Z,22.57
2022-10-30T11:35:25.332Z,22.48
2022-10-30T11:38:12.246Z,21.84
2022-10-30T11:40:41.037Z,23.07
2022-10-30T11:43:12.318Z,23.19
2022-10-30T11:45:41.712Z,22.93
2022-10-30T11:48:20.806Z,23.12
2022-10-30T11:50:50.003Z,23.85
2022-10-30T11:53:24.097Z,24.21
2022-10-30T11:55:51.016Z,25.61
2022-10-30T11:58:28.056Z,26.51
2022-10-30T12:01:28.273Z,26.20
2022-10-30T12:03:56.390Z,24.65
2022-10-30T12:06:22.720Z,25.25
2022-10-30T12:09:02.519Z,26.17
2022-10-30T12:11:32.372Z,25.40
2022-10-30T12:13:59.291Z,25.93
2022-10-30T12:16:26.835Z,24.20
2022-10-30T12:19:15.109Z,23.10
2022-10-30T12:21:45.535Z,22.58
2022-10-30T12:24:31.783Z,23.41
2022-10-30T12:27:03.115Z,23.19
2022-10-30T12:30:06.703Z,22.11
2022-10-30T12:32:45.115Z,22.71
2022-10-30T12:35:57.047Z,22.15
2022-10-30T12:38:50.297Z,23.04
2022-10-30T12:41:40.450Z,24.16
2022-10-30T12:44:27.171Z,24.82
2022-10-30T12:47:00.725Z,25.27
2022-10-30T12:49:39.687Z,25.91
2022-10-30T12:52:11.992Z,25.91
2022-10-30T12:54:51.910Z,25.82
2022-10-30T12:57:26.571Z,24.49
2022-10-30T13:00:22.398Z,22.57
2022-10-30T13:03:00.399Z,21.32
2022-10-30T13:05:40.913Z,20.88
2022-10-30T13:08:32.040Z,20.30
2022-10-30T13:11:09.533Z,19.88
2022-10-30T13:13:45.528Z,20.04
2022-10-30T13:16:31.676Z,19.67
2022-10-30T13:19:00.636Z,19.86
2022-10-30T13:21:38.006Z,19.66
2022-10-30T13:24:06.943Z,19.39
2022-10-30T13:26:41.973Z,19.54
2022-10-30T13:29:25.444Z,19.50
2022-10-30T13:31:59.626Z,19.12
2022-10-30T13:34:37.637Z,19.25
2022-10-30T13:37:21.454Z,19.43
2022-10-30T13:40:10.906Z,19.28
2022-10-30T13:42:54.776Z,19.02
2022-10-30T13:45:43.085Z,19.39
2022-10-30T13:48:21.492Z,19.15
2022-10-30T13:51:06.468Z,18.69
2022-10-30T13:53:36.722Z,18.81
2022-10-30T13:56:04.861Z,19.12
2022-10-30T13:59:09.886Z,19.24
2022-10-30T14:01:46.373Z,19.03
2022-10-30T14:04:29.812Z,18.97
2022-10-30T14:07:14.954Z,19.13
2022-10-30T14:09:51.548Z,19.13
2022-10-30T14:12:49.028Z,19.11
2022-10-30T14:15:25.479Z,19.16
2022-10-30T14:18:13.862Z,19.17
2022-10-30T14:20:49.011Z,19.25
2022-10-30T14:23:19.890Z,18.91
2022-10-30T14:26:04.472Z,19.13
2022-10-30T14:28:33.716Z,19.13
2022-10-30T14:31:12.776Z,18.95
2022-10-30T14:33:57.435Z,19.11
2022-10-30T14:36:45.302Z,19.10
2022-10-30T14:39:14.736Z,18.88
2022-10-30T14:42:06.132Z,19.07
2022-10-30T14:45:10.128Z,19.05
2022-10-30T14:47:55.430Z,19.08
2022-10-30T14:50:27.624Z,19.06
2022-10-30T14:53:30.348Z,19.06
2022-10-30T14:56:08.480Z,19.02
2022-10-30T14:58:37.088Z,18.86
2022-10-30T15:01:03.590Z,18.78
2022-10-30T15:03:45.348Z,18.90
2022-10-30T15:06:11.991Z,18.90
2022-10-30T15:08:58.813Z,18.88
2022-10-30T15:11:40.360Z,18.92
2022-10-30T15:14:21.004Z,18.95
2022-10-30T15:16:50.850Z,18.96
2022-10-30T15:19:18.640Z,18.92
2022-10-30T15:21:49.976Z,18.87
2022-10-30T15:24:18.837Z,18.86
2022-10-30T15:26:49.401Z,18.83
2022-10-30T15:29:19.940Z,18.78
2022-10-30T15:32:00.971Z,18.74
2022-10-30T15:34:29.756Z,18.74
2022-10-30T15:36:56.816Z,18.69
2022-10-30T15:39:23.946Z,18.65
2022-10-30T15:41:56.929Z,18.57
2022-10-30T15:44:27.335Z,18.48
2022-10-30T15:46:55.426Z,18.43
2022-10-30T15:49:34.730Z,18.37
2022-10-30T15:52:05.799Z,18.36
2022-10-30T15:54:33.880Z,18.21
2022-10-30T15:57:36.575Z,18.11
2022-10-30T16:00:00.007Z,18.11
2022-10-30T16:02:27.188Z,18.08
2022-10-30T16:04:54.155Z,18.04
2022-10-30T16:07:25.873Z,18.00
2022-10-30T16:09:57.757Z,17.94
2022-10-30T16:12:30.221Z,17.83
2022-10-30T16:14:58.730Z,17.88
2022-10-30T16:17:26.777Z,17.82
2022-10-30T16:19:58.969Z,17.80
2022-10-30T16:22:29.262Z,17.76
2022-10-30T16:24:57.208Z,17.71
2022-10-30T16:27:24.934Z,17.69
2022-10-30T16:29:55.454Z,17.65
2022-10-30T16:32:29.363Z,17.58
2022-10-30T16:35:01.427Z,17.54
2022-10-30T16:37:40.203Z,17.46
2022-10-30T16:40:14.403Z,17.46
2022-10-30T16:42:41.241Z,17.43
2022-10-30T16:45:10.616Z,17.36
2022-10-30T16:47:40.295Z,17.35
2022-10-30T16:50:10.094Z,17.23
2022-10-30T16:52:36.566Z,17.25
2022-10-30T16:55:12.956Z,17.22
2022-10-30T16:57:44.339Z,16.97
2022-10-30T17:00:25.988Z,17.06
2022-10-30T17:02:56.424Z,17.07
2022-10-30T17:05:22.902Z,17.03
2022-10-30T17:08:09.202Z,16.90
2022-10-30T17:10:43.356Z,16.94
2022-10-30T17:13:37.553Z,16.89
2022-10-30T17:16:18.854Z,16.79
2022-10-30T17:18:46.885Z,16.70
2022-10-30T17:21:16.773Z,16.73
2022-10-30T17:23:48.580Z,16.72
2022-10-30T17:26:16.357Z,16.66
2022-10-30T17:28:43.223Z,16.62
2022-10-30T17:31:19.975Z,16.61
2022-10-30T17:33:47.409Z,16.58
2022-10-30T17:36:14.500Z,16.50
2022-10-30T17:38:40.970Z,16.48
2022-10-30T17:41:08.345Z,16.43
2022-10-30T17:43:48.860Z,16.39
2022-10-30T17:46:20.267Z,16.43
2022-10-30T17:48:47.233Z,16.41
2022-10-30T17:51:15.288Z,16.46
2022-10-30T17:53:42.287Z,16.39
2022-10-30T17:56:17.595Z,16.36
2022-10-30T17:58:44.004Z,16.31
2022-10-30T18:01:16.238Z,16.29
2022-10-30T18:03:42.807Z,16.34
2022-10-30T18:06:17.331Z,16.38
2022-10-30T18:08:47.844Z,16.35
2022-10-30T18:11:19.916Z,16.29
2022-10-30T18:13:47.708Z,16.22
2022-10-30T18:16:15.980Z,16.21
2022-10-30T18:18:43.032Z,16.17
2022-10-30T18:21:20.794Z,16.15
2022-10-30T18:23:52.366Z,16.12
2022-10-30T18:26:26.474Z,16.06
2022-10-30T18:28:53.692Z,16.01
2022-10-30T18:31:22.910Z,15.91
2022-10-30T18:33:49.504Z,15.86
2022-10-30T18:36:18.311Z,15.79
2022-10-30T18:38:44.815Z,15.89
2022-10-30T18:41:34.499Z,15.91
2022-10-30T18:44:01.377Z,15.80
2022-10-30T18:46:30.502Z,15.81
2022-10-30T18:48:57.204Z,15.79
2022-10-30T18:51:28.007Z,15.75
2022-10-30T18:53:56.685Z,15.67
2022-10-30T18:56:26.718Z,15.70
2022-10-30T18:58:58.424Z,15.67
2022-10-30T19:01:30.046Z,15.63
2022-10-30T19:03:56.652Z,15.58
2022-10-30T19:06:24.733Z,15.53
2022-10-30T19:08:51.199Z,15.51
2022-10-30T19:11:24.313Z,15.44
2022-10-30T19:13:52.033Z,15.44
2022-10-30T19:16:19.576Z,15.48
2022-10-30T19:18:47.342Z,15.40
2022-10-30T19:21:19.649Z,15.41
2022-10-30T19:23:46.557Z,15.35
2022-10-30T19:26:17.031Z,15.33
2022-10-30T19:28:44.524Z,15.38
2022-10-30T19:31:15.686Z,15.32
2022-10-30T19:33:42.422Z,15.26
2022-10-30T19:36:28.720Z,15.19
2022-10-30T19:38:56.030Z,15.06
2022-10-30T19:41:24.497Z,15.09
2022-10-30T19:43:51.245Z,15.07
2022-10-30T19:46:17.841Z,15.08
2022-10-30T19:49:00.382Z,15.03
2022-10-30T19:51:28.092Z,15.00
2022-10-30T19:53:54.547Z,14.95
2022-10-30T19:56:21.068Z,14.91
2022-10-30T19:58:47.568Z,14.95
2022-10-30T20:01:14.566Z,14.89
2022-10-30T20:03:41.234Z,14.88
2022-10-30T20:06:10.573Z,14.85
2022-10-30T20:08:36.985Z,14.82
2022-10-30T20:11:03.443Z,14.84
2022-10-30T20:13:30.235Z,14.79
2022-10-30T20:15:59.193Z,14.74
2022-10-30T20:18:30.116Z,14.68
2022-10-30T20:21:00.083Z,14.63
2022-10-30T20:23:27.301Z,14.54
2022-10-30T20:25:59.390Z,14.56
2022-10-30T20:28:41.724Z,14.51
2022-10-30T20:31:10.970Z,14.44
2022-10-30T20:33:37.633Z,14.50
2022-10-30T20:36:04.489Z,14.56
2022-10-30T20:38:33.136Z,14.57
2022-10-30T20:41:01.686Z,14.53
2022-10-30T20:43:34.018Z,14.44
2022-10-30T20:46:01.850Z,14.45
2022-10-30T20:48:28.781Z,14.48
2022-10-30T20:50:58.323Z,14.45
2022-10-30T20:53:25.122Z,14.40
2022-10-30T20:55:51.821Z,14.40
2022-10-30T20:58:18.632Z,14.24
2022-10-30T21:00:45.475Z,14.24
2022-10-30T21:03:14.398Z,14.32
2022-10-30T21:05:44.671Z,14.25
2022-10-30T21:08:13.362Z,14.20
2022-10-30T21:10:40.571Z,14.27
2022-10-30T21:13:09.638Z,14.19
2022-10-30T21:15:42.528Z,14.22
2022-10-30T21:18:11.126Z,14.08
2022-10-30T21:20:38.312Z,13.98
2022-10-30T21:23:05.748Z,14.02
2022-10-30T21:25:32.352Z,14.13
2022-10-30T21:27:59.636Z,14.11
2022-10-30T21:30:26.129Z,13.90
2022-10-30T21:32:52.636Z,13.91
2022-10-30T21:35:19.578Z,13.78
2022-10-30T21:37:46.020Z,13.77
2022-10-30T21:40:13.037Z,13.69
2022-10-30T21:42:39.522Z,13.61
2022-10-30T21:45:07.012Z,13.77
2022-10-30T21:47:33.414Z,13.77
2022-10-30T21:49:59.805Z,13.90
2022-10-30T21:52:26.267Z,13.90
2022-10-30T21:54:52.648Z,13.90
2022-10-30T21:57:19.064Z,13.82
2022-10-30T21:59:45.589Z,13.86
2022-10-30T22:02:15.424Z,13.82
2022-10-30T22:04:42.142Z,13.78
2022-10-30T22:07:09.001Z,13.78
2022-10-30T22:09:35.464Z,13.68
2022-10-30T22:12:01.944Z,13.62
2022-10-30T22:14:29.260Z,13.65
2022-10-30T22:16:55.875Z,13.70
2022-10-30T22:19:22.275Z,13.64
2022-10-30T22:21:48.685Z,13.62
2022-10-30T22:24:15.969Z,13.66
2022-10-30T22:26:42.339Z,13.65
2022-10-30T22:29:08.972Z,13.66
2022-10-30T22:31:35.423Z,13.58
2022-10-30T22:34:02.243Z,13.57
2022-10-30T22:36:30.934Z,13.55
2022-10-30T22:39:03.636Z,13.54
2022-10-30T22:41:34.778Z,13.49
2022-10-30T22:44:05.044Z,13.48
2022-10-30T22:46:31.482Z,13.46
2022-10-30T22:48:58.524Z,13.44
2022-10-30T22:51:25.539Z,13.41
2022-10-30T22:53:57.861Z,13.37
2022-10-30T22:56:27.435Z,13.32
2022-10-30T22:58:54.834Z,13.27
2022-10-30T23:01:30.234Z,13.29
2022-10-30T23:03:58.469Z,13.31
2022-10-30T23:06:25.885Z,13.29
2022-10-30T23:08:53.839Z,13.25
2022-10-30T23:11:20.556Z,13.22
2022-10-30T23:13:47.029Z,13.23
2022-10-30T23:16:17.076Z,13.21
2022-10-30T23:18:44.203Z,13.20
2022-10-30T23:21:13.832Z,13.15
2022-10-30T23:23:42.081Z,13.04
2022-10-30T23:26:14.458Z,13.10
2022-10-30T23:28:41.748Z,13.11
2022-10-30T23:31:20.196Z,13.03
2022-10-30T23:33:48.671Z,12.94
2022-10-30T23:36:15.599Z,12.84
2022-10-30T23:38:42.238Z,12.87
2022-10-30T23:41:09.096Z,12.77
2022-10-30T23:43:35.579Z,12.80
2022-10-30T23:46:02.119Z,12.59
2022-10-30T23:48:28.526Z,12.66
2022-10-30T23:50:54.933Z,12.82
2022-10-30T23:53:21.341Z,12.82
2022-10-30T23:55:52.843Z,12.69
2022-10-30T23:58:20.342Z,12.68
